Time;durP1;ratioP1;P1;durP2;ratioP2;P2;SDS_P1;SDS_P2;PMS_P1;PMS_P2;Temp;Humidity;BMP_temperature;BMP_pressure;BME280_temperature;BME280_humidity;BME280_pressure;Samples;Min_cycle;Max_cycle;Signal;HPM_P1;HPM_P2
2023/04/09 00:00:10;;;;;;;17.40;12.47;;;;;;;7.57;100.00;94811.78;5112997;28;20560;-84
2023/04/09 00:02:38;;;;;;;20.40;13.33;;;;;;;7.63;100.00;94818.75;5111180;28;20184;-84
2023/04/09 00:05:06;;;;;;;18.73;13.20;;;;;;;7.60;100.00;94826.91;5112327;28;20211;-82
2023/04/09 00:07:33;;;;;;;19.07;13.37;;;;;;;7.63;100.00;94826.50;5112951;28;20212;-83
2023/04/09 00:09:59;;;;;;;18.27;13.40;;;;;;;7.54;100.00;94822.50;5112699;28;20196;-83
2023/04/09 00:12:26;;;;;;;17.90;12.63;;;;;;;7.57;100.00;94835.06;5112580;28;20571;-83
2023/04/09 00:14:54;;;;;;;18.53;13.73;;;;;;;7.62;100.00;94837.06;5112037;28;20231;-82
2023/04/09 00:17:21;;;;;;;19.43;12.57;;;;;;;7.64;100.00;94838.47;5112750;28;20553;-82
2023/04/09 00:19:49;;;;;;;18.33;12.87;;;;;;;7.74;100.00;94833.69;5112133;28;20664;-82
2023/04/09 00:22:16;;;;;;;16.43;12.53;;;;;;;7.74;100.00;94836.28;5114167;28;20200;-83
2023/04/09 00:24:43;;;;;;;17.50;12.23;;;;;;;7.72;100.00;94820.19;5114698;28;20196;-82
2023/04/09 00:27:10;;;;;;;16.47;12.30;;;;;;;7.79;100.00;94825.38;5114169;28;20721;-81
2023/04/09 00:29:37;;;;;;;16.43;12.13;;;;;;;7.86;100.00;94831.34;5113842;28;20202;-81
2023/04/09 00:32:05;;;;;;;17.03;12.37;;;;;;;7.87;100.00;94835.53;5112896;28;20256;-81
2023/04/09 00:34:31;;;;;;;17.10;12.17;;;;;;;7.83;100.00;94832.53;5111986;28;20298;-81
2023/04/09 00:37:01;;;;;;;18.43;12.80;;;;;;;7.78;100.00;94816.00;5111978;28;20188;-82
2023/04/09 00:39:28;;;;;;;16.77;12.03;;;;;;;7.90;100.00;94843.69;5112847;28;20681;-83
2023/04/09 00:41:57;;;;;;;16.67;12.20;;;;;;;7.88;100.00;94843.06;5112883;28;20188;-83
2023/04/09 00:44:24;;;;;;;18.03;12.57;;;;;;;7.85;100.00;94835.72;5112577;28;20231;-83
2023/04/09 00:46:51;;;;;;;18.97;13.23;;;;;;;7.83;100.00;94836.91;5112228;28;20219;-82
2023/04/09 00:49:18;;;;;;;17.73;13.00;;;;;;;7.81;100.00;94831.13;5110546;28;20231;-81
2023/04/09 00:51:45;;;;;;;16.10;12.40;;;;;;;7.90;100.00;94837.72;5111232;28;20691;-82
2023/04/09 00:54:14;;;;;;;20.07;13.43;;;;;;;7.81;100.00;94820.78;5111798;28;20221;-82
2023/04/09 00:56:42;;;;;;;17.37;12.03;;;;;;;7.93;100.00;94835.53;5112065;28;20200;-81
2023/04/09 00:59:09;;;;;;;17.40;12.30;;;;;;;7.96;100.00;94834.34;5111470;28;20553;-81
2023/04/09 01:01:36;;;;;;;16.50;12.47;;;;;;;7.88;100.00;94837.09;5112510;28;20201;-82
2023/04/09 01:04:03;;;;;;;17.90;12.57;;;;;;;7.82;100.00;94828.34;5111929;28;20199;-81
2023/04/09 01:06:38;;;;;;;19.17;12.23;;;;;;;7.82;100.00;94825.75;5112165;28;20193;-80
2023/04/09 01:09:12;;;;;;;16.30;12.07;;;;;;;7.81;100.00;94824.19;5112233;28;20705;-80
2023/04/09 01:11:56;;;;;;;18.53;12.63;;;;;;;7.84;100.00;94834.13;5113109;28;20180;-83
2023/04/09 01:14:30;;;;;;;15.53;11.50;;;;;;;7.87;100.00;94841.50;5112222;28;20995;-80
2023/04/09 01:17:03;;;;;;;16.63;11.90;;;;;;;7.77;100.00;94841.06;5114316;28;20214;-81
2023/04/09 01:19:43;;;;;;;16.37;12.73;;;;;;;7.73;100.00;94834.72;5115849;28;20651;-81
2023/04/09 01:22:29;;;;;;;18.57;12.43;;;;;;;7.74;100.00;94843.25;5116381;28;20541;-81
2023/04/09 01:25:04;;;;;;;18.90;12.47;;;;;;;7.78;100.00;94841.88;5114978;28;20192;-81
2023/04/09 01:27:42;;;;;;;17.83;12.40;;;;;;;7.77;100.00;94843.66;5116149;28;20370;-81
2023/04/09 01:30:13;;;;;;;18.53;13.53;;;;;;;7.79;100.00;94839.06;5113401;28;20195;-81
2023/04/09 01:32:42;;;;;;;27.73;17.40;;;;;;;7.75;100.00;94837.09;5115869;28;20196;-81
2023/04/09 01:35:10;;;;;;;28.37;17.80;;;;;;;7.71;100.00;94847.03;5112900;28;20192;-81
2023/04/09 01:37:38;;;;;;;28.23;18.60;;;;;;;7.67;100.00;94845.84;5116260;28;20189;-81
2023/04/09 01:40:07;;;;;;;27.90;19.00;;;;;;;7.61;100.00;94844.03;5115730;28;20620;-81
2023/04/09 01:42:34;;;;;;;29.60;19.40;;;;;;;7.67;100.00;94845.03;5116107;28;20203;-80
2023/04/09 01:45:02;;;;;;;28.73;17.87;;;;;;;7.63;100.00;94849.78;5115747;28;20199;-81
2023/04/09 01:47:31;;;;;;;29.67;17.97;;;;;;;7.68;100.00;94852.59;5113409;28;20219;-81
2023/04/09 01:49:58;;;;;;;27.63;18.07;;;;;;;7.67;100.00;94843.25;5116247;28;20223;-82
2023/04/09 01:52:25;;;;;;;29.50;18.47;;;;;;;7.70;100.00;94845.44;5115931;28;20203;-82
2023/04/09 01:54:52;;;;;;;26.93;18.37;;;;;;;7.65;100.00;94839.25;5115761;28;20737;-81
2023/04/09 01:57:18;;;;;;;28.10;18.57;;;;;;;7.67;100.00;94847.63;5115939;28;20245;-82
2023/04/09 01:59:45;;;;;;;29.43;19.97;;;;;;;7.68;100.00;94849.19;5115051;28;20195;-81
2023/04/09 02:02:19;;;;;;;31.97;20.50;;;;;;;7.65;100.00;94834.88;5115062;28;20207;-80
2023/04/09 02:04:51;;;;;;;30.43;19.97;;;;;;;7.63;100.00;94833.47;5115150;28;20204;-80
2023/04/09 02:07:28;;;;;;;28.37;19.97;;;;;;;7.70;100.00;94836.88;5116935;28;20219;-82
2023/04/09 02:09:56;;;;;;;29.30;19.07;;;;;;;7.77;100.00;94841.06;5116062;28;20192;-82
2023/04/09 02:12:25;;;;;;;27.47;16.93;;;;;;;7.76;100.00;94842.06;5113656;28;20204;-82
2023/04/09 02:14:53;;;;;;;24.70;17.20;;;;;;;7.81;100.00;94849.25;5114663;28;20207;-82
2023/04/09 02:17:20;;;;;;;24.73;16.97;;;;;;;7.78;100.00;94840.09;5111533;28;20188;-82
2023/04/09 02:19:48;;;;;;;25.57;17.40;;;;;;;7.75;100.00;94840.47;5114951;28;20228;-82
2023/04/09 02:22:16;;;;;;;23.07;15.90;;;;;;;7.75;100.00;94848.25;5114815;28;20200;-82
2023/04/09 02:24:44;;;;;;;26.47;16.87;;;;;;;7.74;100.00;94840.66;5115101;28;20207;-82
2023/04/09 02:27:10;;;;;;;25.83;17.73;;;;;;;7.66;100.00;94833.88;5114447;28;20223;-82
2023/04/09 02:29:38;;;;;;;27.00;17.57;;;;;;;7.70;100.00;94839.47;5114312;28;20196;-81
2023/04/09 02:32:05;;;;;;;25.57;16.47;;;;;;;7.72;100.00;94840.06;5114642;28;20602;-82
2023/04/09 02:34:32;;;;;;;23.90;15.20;;;;;;;7.63;100.00;94839.44;5115077;28;20203;-81
2023/04/09 02:37:00;;;;;;;25.17;15.57;;;;;;;7.56;100.00;94838.63;5103558;28;20682;-81
2023/04/09 02:39:27;;;;;;;21.77;15.07;;;;;;;7.54;100.00;94838.03;5114572;28;20204;-80
2023/04/09 02:41:54;;;;;;;23.20;15.20;;;;;;;7.53;100.00;94836.44;5114564;28;20262;-80
2023/04/09 02:44:21;;;;;;;22.10;15.47;;;;;;;7.53;100.00;94835.66;5114528;28;20211;-81
2023/04/09 02:46:48;;;;;;;21.50;13.73;;;;;;;7.61;100.00;94831.09;5114046;28;20188;-81
2023/04/09 02:49:15;;;;;;;22.87;14.83;;;;;;;7.56;100.00;94828.28;5114046;28;20322;-81
2023/04/09 02:51:42;;;;;;;19.50;13.07;;;;;;;7.61;100.00;94836.28;5114486;28;20196;-81
2023/04/09 02:54:10;;;;;;;21.17;13.83;;;;;;;7.58;100.00;94823.72;5109115;28;20204;-81
2023/04/09 02:56:37;;;;;;;18.50;13.23;;;;;;;7.56;100.00;94823.09;5114438;28;20281;-81
2023/04/09 02:59:04;;;;;;;21.37;13.73;;;;;;;7.59;100.00;94833.06;5116236;28;20196;-81
2023/04/09 03:01:30;;;;;;;18.53;13.70;;;;;;;7.57;100.00;94824.72;5115006;28;20200;-83
2023/04/09 03:03:57;;;;;;;20.67;13.93;;;;;;;7.35;100.00;94800.78;5114751;28;20194;-83
2023/04/09 03:06:25;;;;;;;18.43;12.87;;;;;;;7.50;100.00;94833.44;5115688;28;20280;-82
2023/04/09 03:08:52;;;;;;;20.80;13.50;;;;;;;7.49;100.00;94832.66;5117583;28;20383;-81
2023/04/09 03:11:20;;;;;;;16.87;12.87;;;;;;;7.54;100.00;94830.28;5117112;28;20204;-81
2023/04/09 03:13:47;;;;;;;18.20;13.40;;;;;;;7.52;100.00;94831.47;5116346;28;20211;-82
2023/04/09 03:16:13;;;;;;;20.53;14.03;;;;;;;7.50;100.00;94818.75;5116575;28;20196;-82
2023/04/09 03:18:40;;;;;;;19.23;13.20;;;;;;;7.48;100.00;94828.47;5115615;28;20189;-81
2023/04/09 03:21:07;;;;;;;19.70;12.97;;;;;;;7.34;100.00;94817.28;5114845;28;20204;-82
2023/04/09 03:23:35;;;;;;;17.13;12.83;;;;;;;7.39;100.00;94830.41;5113623;28;20196;-84
2023/04/09 03:26:03;;;;;;;20.30;13.90;;;;;;;7.15;100.00;94792.19;5113331;28;20242;-83
2023/04/09 03:28:31;;;;;;;19.90;13.67;;;;;;;7.39;100.00;94825.25;5110319;28;20639;-83
2023/04/09 03:30:58;;;;;;;20.87;14.03;;;;;;;7.34;100.00;94814.69;5113160;28;20196;-83
2023/04/09 03:33:25;;;;;;;20.13;13.47;;;;;;;7.46;100.00;94825.28;5113371;28;20211;-81
2023/04/09 03:35:53;;;;;;;20.43;13.50;;;;;;;7.33;100.00;94814.91;5113196;28;20196;-81
2023/04/09 03:38:20;;;;;;;20.30;14.40;;;;;;;7.34;100.00;94819.88;5112733;28;20698;-82
2023/04/09 03:40:46;;;;;;;20.57;15.10;;;;;;;7.36;100.00;94830.81;5111610;28;20684;-82
2023/04/09 03:43:13;;;;;;;24.47;17.03;;;;;;;7.32;100.00;94824.44;5112447;28;20620;-82
2023/04/09 03:45:41;;;;;;;23.83;16.97;;;;;;;7.30;100.00;94823.06;5113007;28;20245;-82
2023/04/09 03:48:08;;;;;;;29.63;19.13;;;;;;;7.31;100.00;94830.59;5112729;28;20602;-82
2023/04/09 03:50:40;;;;;;;31.07;20.17;;;;;;;7.24;100.00;94827.19;5113226;28;20195;-82
2023/04/09 03:53:07;;;;;;;28.30;20.03;;;;;;;7.17;100.00;94834.13;5113207;28;20242;-81
2023/04/09 03:55:34;;;;;;;32.23;20.07;;;;;;;7.07;100.00;94831.06;5111800;28;20632;-81
2023/04/09 03:58:01;;;;;;;28.73;18.63;;;;;;;7.08;100.00;94839.63;5112007;28;20574;-81
2023/04/09 04:00:27;;;;;;;26.57;18.20;;;;;;;7.05;100.00;94832.25;5113055;28;20200;-81
2023/04/09 04:02:56;;;;;;;29.03;19.10;;;;;;;7.09;100.00;94834.28;5113163;28;20241;-80
2023/04/09 04:05:24;;;;;;;25.93;17.27;;;;;;;7.04;100.00;94830.69;5112470;28;20205;-80
2023/04/09 04:07:51;;;;;;;22.23;15.80;;;;;;;7.00;100.00;94834.63;5112691;28;20293;-81
2023/04/09 04:10:18;;;;;;;24.17;15.00;;;;;;;6.84;100.00;94820.22;5112557;28;20196;-83
2023/04/09 04:12:45;;;;;;;23.33;15.37;;;;;;;7.00;100.00;94834.63;5112696;28;20203;-81
2023/04/09 04:15:12;;;;;;;24.67;16.23;;;;;;;7.06;100.00;94832.09;5110378;28;20616;-80
2023/04/09 04:17:39;;;;;;;25.90;15.70;;;;;;;7.02;100.00;94840.41;5112250;28;20196;-83
2023/04/09 04:20:08;;;;;;;26.40;17.77;;;;;;;7.01;100.00;94837.03;5112367;28;20204;-80
2023/04/09 04:22:35;;;;;;;32.07;19.40;;;;;;;6.98;100.00;94834.03;5112293;28;20229;-80
2023/04/09 04:25:02;;;;;;;28.20;19.27;;;;;;;7.00;100.00;94845.75;5112195;28;20203;-80
2023/04/09 04:27:29;;;;;;;29.97;19.40;;;;;;;7.06;100.00;94839.84;5111654;28;20203;-80
2023/04/09 04:29:58;;;;;;;32.07;20.23;;;;;;;7.09;100.00;94844.63;5112219;28;20185;-80
2023/04/09 04:32:26;;;;;;;28.97;17.77;;;;;;;7.10;100.00;94837.66;5112475;28;20203;-81
2023/04/09 04:34:52;;;;;;;25.70;17.73;;;;;;;7.10;100.00;94840.25;5111922;28;20192;-81
2023/04/09 04:37:21;;;;;;;23.80;16.20;;;;;;;7.07;100.00;94835.47;5112271;28;20198;-81
2023/04/09 04:39:48;;;;;;;23.50;15.77;;;;;;;7.11;100.00;94839.25;5112312;28;20192;-81
2023/04/09 04:42:15;;;;;;;25.40;16.40;;;;;;;7.14;100.00;94839.66;5112627;28;20227;-80
2023/04/09 04:44:42;;;;;;;22.50;15.70;;;;;;;7.18;100.00;94840.09;5112195;28;20264;-81
2023/04/09 04:47:09;;;;;;;24.73;16.87;;;;;;;7.12;100.00;94828.75;5111930;28;20199;-81
2023/04/09 04:49:35;;;;;;;24.83;16.07;;;;;;;7.22;100.00;94851.63;5111138;28;20228;-81
2023/04/09 04:52:02;;;;;;;27.27;16.87;;;;;;;7.12;100.00;94820.97;5112601;28;20196;-82
2023/04/09 04:54:30;;;;;;;25.10;17.57;;;;;;;7.35;100.00;94849.09;5111646;28;20192;-81
2023/04/09 04:56:57;;;;;;;25.37;17.00;;;;;;;7.46;100.00;94851.13;5111371;28;20662;-82
2023/04/09 04:59:24;;;;;;;26.03;16.10;;;;;;;7.46;100.00;94842.56;5112046;28;20191;-82
2023/04/09 05:01:51;;;;;;;25.50;17.17;;;;;;;7.56;100.00;94853.38;5111749;28;20200;-81
2023/04/09 05:04:17;;;;;;;26.20;16.47;;;;;;;7.60;100.00;94855.34;5110780;28;20206;-82
2023/04/09 05:06:44;;;;;;;27.13;17.33;;;;;;;7.66;100.00;94854.59;5110995;28;20199;-82
2023/04/09 05:09:11;;;;;;;27.07;17.07;;;;;;;7.69;100.00;94850.81;5111226;28;20208;-80
2023/04/09 05:11:41;;;;;;;28.63;17.87;;;;;;;7.78;100.00;94858.19;5111160;28;20215;-82
2023/04/09 05:14:08;;;;;;;29.40;17.47;;;;;;;7.84;100.00;94854.84;5111735;28;20567;-81
2023/04/09 05:16:35;;;;;;;30.57;17.10;;;;;;;7.86;100.00;94849.44;5111452;28;20204;-81
2023/04/09 05:19:02;;;;;;;27.47;17.53;;;;;;;7.90;100.00;94854.06;5111560;28;20202;-81
2023/04/09 05:21:29;;;;;;;27.30;17.57;;;;;;;7.99;100.00;94849.50;5111402;28;20211;-80
2023/04/09 05:23:55;;;;;;;29.30;17.60;;;;;;;8.05;100.00;94858.25;5111103;28;20203;-78
2023/04/09 05:26:25;;;;;;;26.07;17.40;;;;;;;7.97;100.00;94848.88;5099032;28;20192;-79
2023/04/09 05:28:55;;;;;;;30.17;18.37;;;;;;;7.85;100.00;94835.72;5111690;28;20224;-79
2023/04/09 05:31:21;;;;;;;30.00;18.70;;;;;;;7.98;100.00;94856.44;5107131;28;20743;-80
2023/04/09 05:33:48;;;;;;;28.93;18.33;;;;;;;7.99;100.00;94859.84;5111500;28;20681;-80
2023/04/09 05:36:16;;;;;;;28.97;18.67;;;;;;;7.96;100.00;94844.69;5111955;28;20195;-80
2023/04/09 05:38:43;;;;;;;31.77;19.43;;;;;;;8.06;100.00;94850.28;5111518;28;20213;-81
2023/04/09 05:41:10;;;;;;;28.63;18.60;;;;;;;8.14;100.00;94859.66;5111904;28;20200;-81
2023/04/09 05:43:38;;;;;;;30.53;19.17;;;;;;;8.09;100.00;94857.66;5111610;28;20695;-79
2023/04/09 05:46:06;;;;;;;28.27;18.43;;;;;;;8.17;100.00;94862.63;5106621;28;20204;-80
2023/04/09 05:48:35;;;;;;;27.57;16.80;;;;;;;8.13;100.00;94869.22;5110883;28;20246;-80
2023/04/09 05:51:02;;;;;;;29.63;18.40;;;;;;;8.13;100.00;94858.88;5111398;28;20190;-80
2023/04/09 05:53:30;;;;;;;27.83;17.30;;;;;;;8.06;100.00;94857.25;5110642;28;20679;-80
2023/04/09 05:55:57;;;;;;;28.00;16.83;;;;;;;8.16;100.00;94858.47;5110425;28;20196;-80
2023/04/09 05:58:24;;;;;;;28.00;16.90;;;;;;;8.25;100.00;94859.88;5111182;28;20203;-83
2023/04/09 06:00:51;;;;;;;27.43;16.50;;;;;;;8.14;100.00;94837.13;5111595;28;20227;-85
2023/04/09 06:03:19;;;;;;;26.07;16.37;;;;;;;8.31;100.00;94850.53;5111834;28;20200;-84
2023/04/09 06:05:47;;;;;;;26.77;16.23;;;;;;;8.40;100.00;94865.66;5114784;28;20235;-84
2023/04/09 06:08:14;;;;;;;26.53;16.10;;;;;;;8.44;100.00;94866.06;5115166;28;20208;-84
2023/04/09 06:10:41;;;;;;;26.47;16.20;;;;;;;8.49;100.00;94861.88;5115122;28;20747;-85
2023/04/09 06:13:08;;;;;;;27.23;16.00;;;;;;;8.58;100.00;94862.47;5114020;28;20188;-84
2023/04/09 06:15:35;;;;;;;26.37;16.37;;;;;;;8.73;100.00;94867.44;5114678;28;20678;-81
2023/04/09 06:18:01;;;;;;;27.13;16.33;;;;;;;8.83;100.00;94866.03;5106272;28;20279;-80
2023/04/09 06:20:30;;;;;;;27.93;16.17;;;;;;;8.90;100.00;94859.06;5114562;28;20191;-80
2023/04/09 06:22:57;;;;;;;26.23;15.80;;;;;;;9.04;100.00;94860.63;5113942;28;20192;-80
2023/04/09 06:25:24;;;;;;;30.00;16.67;;;;;;;9.13;100.00;94850.81;5114568;28;20188;-83
2023/04/09 06:27:51;;;;;;;22.57;15.03;;;;;;;9.28;100.00;94860.97;5114089;28;20196;-80
2023/04/09 06:30:18;;;;;;;23.17;15.03;;;;;;;9.31;100.00;94869.13;5113745;28;20220;-79
2023/04/09 06:32:47;;;;;;;23.77;15.33;;;;;;;9.41;100.00;94863.50;5113360;28;20192;-78
2023/04/09 06:35:14;;;;;;;27.50;16.20;;;;;;;9.39;100.00;94868.09;5113761;28;20352;-77
2023/04/09 06:37:42;;;;;;;29.73;16.03;;;;;;;9.43;100.00;94870.09;5107540;28;20188;-77
2023/04/09 06:40:12;;;;;;;21.97;15.37;;;;;;;9.49;100.00;94864.09;5112671;28;20192;-77
2023/04/09 06:42:39;;;;;;;25.03;15.37;;;;;;;9.53;98.02;94873.03;5112758;28;20189;-78
2023/04/09 06:45:07;;;;;;;22.47;14.57;;;;;;;9.48;97.33;94870.28;5113058;28;20188;-78
2023/04/09 06:47:34;;;;;;;24.53;15.30;;;;;;;9.55;98.32;94872.84;5113061;28;20275;-78
2023/04/09 06:50:01;;;;;;;29.70;15.47;;;;;;;9.66;97.97;94877.38;5113702;28;20200;-78
2023/04/09 06:52:28;;;;;;;23.37;15.27;;;;;;;9.71;97.72;94872.34;5113350;28;20189;-78
2023/04/09 06:54:56;;;;;;;22.10;14.90;;;;;;;9.87;98.19;94879.66;5112704;28;20188;-79
2023/04/09 06:57:23;;;;;;;22.00;14.20;;;;;;;9.94;98.34;94883.03;5111856;28;20188;-78
2023/04/09 06:59:50;;;;;;;28.77;14.27;;;;;;;10.00;98.65;94882.19;5111582;28;20188;-78
2023/04/09 07:02:17;;;;;;;24.80;15.13;;;;;;;9.99;96.95;94887.59;5112324;28;20226;-77
2023/04/09 07:04:44;;;;;;;24.63;14.10;;;;;;;9.98;95.54;94879.03;5112284;28;20200;-77
2023/04/09 07:07:11;;;;;;;21.20;14.13;;;;;;;9.88;95.16;94886.44;5112068;28;20253;-77
2023/04/09 07:09:38;;;;;;;22.37;15.23;;;;;;;9.96;97.72;94885.41;5112330;27;20277;-77
2023/04/09 07:12:06;;;;;;;26.57;15.27;;;;;;;10.08;94.95;94888.94;5115326;27;20192;-77
2023/04/09 07:14:33;;;;;;;20.87;13.60;;;;;;;10.13;95.02;94883.94;5112419;28;20266;-79
2023/04/09 07:17:00;;;;;;;22.60;14.33;;;;;;;10.14;94.74;94886.34;5112688;28;20188;-78
2023/04/09 07:19:27;;;;;;;21.80;14.73;;;;;;;10.25;95.16;94885.66;5112445;28;20637;-77
2023/04/09 07:21:53;;;;;;;22.30;14.23;;;;;;;10.29;94.78;94883.44;5112283;28;20200;-78
2023/04/09 07:24:20;;;;;;;20.90;14.17;;;;;;;10.36;93.63;94878.22;5112628;28;20199;-77
2023/04/09 07:26:49;;;;;;;21.20;13.50;;;;;;;10.40;93.28;94892.34;5112263;28;20188;-78
2023/04/09 07:29:19;;;;;;;19.30;13.57;;;;;;;10.31;92.15;94891.03;5112358;28;20216;-77
2023/04/09 07:31:46;;;;;;;19.67;13.17;;;;;;;10.30;93.24;94885.06;5112229;28;20287;-76
2023/04/09 07:34:13;;;;;;;20.20;14.33;;;;;;;10.35;92.57;94892.19;5112084;28;20275;-77
2023/04/09 07:36:41;;;;;;;19.00;12.50;;;;;;;10.40;90.47;94889.75;5111874;28;20200;-78
2023/04/09 07:39:08;;;;;;;22.47;13.30;;;;;;;10.48;91.09;94897.28;5107690;28;20237;-77
2023/04/09 07:41:35;;;;;;;20.63;13.23;;;;;;;10.60;90.33;94886.00;5112183;28;20193;-78
2023/04/09 07:44:02;;;;;;;20.07;13.00;;;;;;;10.70;88.50;94894.16;5110050;28;20200;-80
2023/04/09 07:46:30;;;;;;;19.10;12.03;;;;;;;10.80;89.34;94896.25;5108598;28;20208;-80
2023/04/09 07:48:57;;;;;;;19.70;12.13;;;;;;;10.90;88.49;94890.56;5112010;28;20235;-80
2023/04/09 07:51:25;;;;;;;18.53;11.90;;;;;;;11.00;86.89;94889.06;5112231;28;20195;-80
2023/04/09 07:53:51;;;;;;;14.60;10.87;;;;;;;11.07;86.59;94899.41;5111369;28;20207;-78
2023/04/09 07:56:19;;;;;;;15.33;11.00;;;;;;;11.09;85.79;94884.38;5111524;28;20664;-79
2023/04/09 07:58:47;;;;;;;16.03;11.43;;;;;;;11.20;85.32;94899.28;5112119;28;20207;-79
2023/04/09 08:01:14;;;;;;;15.97;11.43;;;;;;;11.28;84.79;94896.41;5112163;28;20283;-79
2023/04/09 08:03:43;;;;;;;16.83;11.43;;;;;;;11.32;85.87;94903.56;5111610;28;20666;-80
2023/04/09 08:06:10;;;;;;;19.13;11.50;;;;;;;11.27;84.65;94895.63;5111723;28;20390;-79
2023/04/09 08:08:37;;;;;;;13.93;11.10;;;;;;;11.34;83.75;94906.72;5111700;28;20200;-78
2023/04/09 08:11:04;;;;;;;20.63;12.07;;;;;;;11.40;84.64;94902.47;5111680;28;20212;-79
2023/04/09 08:13:34;;;;;;;16.37;11.57;;;;;;;11.43;84.66;94896.06;5112737;28;20192;-80
2023/04/09 08:16:02;;;;;;;15.50;11.30;;;;;;;11.43;83.88;94896.84;5112467;28;20611;-80
2023/04/09 08:18:29;;;;;;;15.67;11.13;;;;;;;11.41;83.22;94909.28;5111765;28;20717;-81
2023/04/09 08:20:57;;;;;;;19.50;13.17;;;;;;;11.34;82.87;94906.72;5111977;28;20214;-80
2023/04/09 08:23:33;;;;;;;19.00;12.60;;;;;;;11.37;83.66;94895.91;5109417;28;20192;-79
2023/04/09 08:25:59;;;;;;;15.43;10.83;;;;;;;11.54;82.34;94905.75;5111576;28;20188;-79
2023/04/09 08:28:29;;;;;;;17.03;11.60;;;;;;;11.56;83.66;94906.31;5111897;28;20180;-79
2023/04/09 08:30:56;;;;;;;18.87;11.27;;;;;;;11.62;84.90;94911.47;5111762;28;20212;-80
2023/04/09 08:33:22;;;;;;;20.20;12.83;;;;;;;11.74;85.49;94904.53;5111544;28;20188;-79
2023/04/09 08:35:49;;;;;;;16.40;12.10;;;;;;;11.68;82.19;94907.97;5112552;27;20566;-75
2023/04/09 08:38:18;;;;;;;16.23;11.50;;;;;;;11.65;82.85;94926.66;5113631;27;20192;-75
2023/04/09 08:40:45;;;;;;;17.37;12.30;;;;;;;11.49;82.70;94913.38;5110665;28;20183;-75
2023/04/09 08:43:19;;;;;;;18.03;12.50;;;;;;;11.48;83.34;94902.22;5111022;28;20190;-75
2023/04/09 08:45:46;;;;;;;18.20;12.47;;;;;;;11.57;83.93;94902.72;5110846;28;20181;-76
2023/04/09 08:48:13;;;;;;;18.43;11.83;;;;;;;11.60;83.53;94897.06;5110486;28;20231;-76
2023/04/09 08:50:40;;;;;;;21.03;12.90;;;;;;;11.70;83.28;94905.19;5111356;28;20215;-76
2023/04/09 08:53:10;;;;;;;19.00;12.70;;;;;;;11.76;83.94;94904.31;5111177;28;20185;-75
2023/04/09 08:55:38;;;;;;;16.40;12.07;;;;;;;11.80;83.09;94900.28;5111155;28;20246;-77
2023/04/09 08:58:06;;;;;;;19.20;12.30;;;;;;;11.66;82.67;94896.19;5110891;28;20573;-75
2023/04/09 09:00:33;;;;;;;17.03;12.60;;;;;;;11.72;81.69;94901.34;5111070;28;20651;-75
2023/04/09 09:03:07;;;;;;;19.10;12.90;;;;;;;11.74;83.16;94907.16;5109351;28;20192;-76
2023/04/09 09:05:39;;;;;;;16.97;10.67;;;;;;;11.77;82.87;94898.91;5103542;28;20280;-75
2023/04/09 09:08:07;;;;;;;16.23;11.53;;;;;;;11.71;81.44;94898.97;5108796;28;20269;-75
2023/04/09 09:10:40;;;;;;;15.83;12.00;;;;;;;11.74;83.03;94899.34;5110351;28;20231;-75
2023/04/09 09:13:20;;;;;;;19.07;13.23;;;;;;;11.86;83.45;94900.16;5108712;28;20248;-75
2023/04/09 09:15:49;;;;;;;18.00;12.80;;;;;;;12.00;82.78;94898.22;5108282;28;20658;-76
2023/04/09 09:18:18;;;;;;;17.63;12.97;;;;;;;12.20;82.79;94890.13;5109985;28;20271;-76
2023/04/09 09:20:44;;;;;;;17.13;11.60;;;;;;;12.31;81.45;94897.97;5107618;28;20219;-76
2023/04/09 09:23:11;;;;;;;18.50;12.57;;;;;;;12.50;81.51;94898.69;5110330;28;20196;-75
2023/04/09 09:25:41;;;;;;;17.73;12.10;;;;;;;12.77;80.21;94902.50;5109883;28;20207;-74
2023/04/09 09:28:09;;;;;;;18.27;11.53;;;;;;;12.91;78.38;94890.03;5104681;28;20193;-76
2023/04/09 09:30:37;;;;;;;17.13;11.70;;;;;;;12.91;77.82;94901.25;5098185;27;20223;-75
2023/04/09 09:33:07;;;;;;;19.03;11.60;;;;;;;13.06;77.76;94899.00;5110299;28;20320;-75
2023/04/09 09:35:49;;;;;;;16.83;12.13;;;;;;;13.04;76.93;94901.03;5110395;28;20208;-76
2023/04/09 09:38:16;;;;;;;17.30;10.70;;;;;;;13.03;76.18;94881.19;5109171;28;20219;-75
2023/04/09 09:40:45;;;;;;;17.37;11.70;;;;;;;13.14;77.25;94879.63;5111796;28;20188;-75
2023/04/09 09:43:12;;;;;;;15.20;11.13;;;;;;;13.17;76.31;94871.34;5114526;28;20188;-75
2023/04/09 09:45:40;;;;;;;17.37;12.43;;;;;;;13.19;75.97;94866.69;5114063;28;20202;-75
2023/04/09 09:48:10;;;;;;;21.10;12.47;;;;;;;13.43;76.54;94878.69;5095078;28;20228;-75
2023/04/09 09:50:40;;;;;;;15.90;11.23;;;;;;;13.59;74.27;94872.75;5114268;28;20216;-75
2023/04/09 09:53:08;;;;;;;14.23;10.33;;;;;;;13.52;74.52;94892.19;5114033;28;20187;-75
2023/04/09 09:55:38;;;;;;;14.73;11.07;;;;;;;13.69;75.03;94871.34;5114149;28;20199;-76
2023/04/09 09:58:11;;;;;;;14.40;10.60;;;;;;;14.01;73.70;94868.09;5111766;28;20188;-75
2023/04/09 10:00:40;;;;;;;14.63;10.33;;;;;;;14.30;73.90;94866.25;5113607;28;20188;-75
2023/04/09 10:03:14;;;;;;;14.57;10.93;;;;;;;14.44;72.69;94859.72;5113936;28;20188;-76
2023/04/09 10:05:41;;;;;;;16.07;10.47;;;;;;;14.81;70.38;94867.88;5113786;28;20338;-76
2023/04/09 10:08:09;;;;;;;14.43;10.67;;;;;;;15.02;68.99;94871.59;5113760;28;20192;-75
2023/04/09 10:10:39;;;;;;;14.67;9.53;;;;;;;15.24;67.41;94867.19;5113303;28;20223;-76
2023/04/09 10:13:10;;;;;;;12.40;9.73;;;;;;;15.12;66.83;94882.25;5113602;28;20192;-76
2023/04/09 10:15:37;;;;;;;11.77;9.20;;;;;;;15.15;66.92;94866.06;5113119;28;20252;-76
2023/04/09 10:18:04;;;;;;;11.97;9.67;;;;;;;14.75;67.67;94867.03;5110504;28;20602;-77
2023/04/09 10:20:41;;;;;;;12.57;9.70;;;;;;;15.09;67.84;94870.41;5112783;28;20196;-76
2023/04/09 10:23:15;;;;;;;11.17;9.13;;;;;;;15.30;65.92;94861.00;5110726;28;20175;-76
2023/04/09 10:25:43;;;;;;;12.60;9.00;;;;;;;15.67;64.32;94866.50;5109358;28;20222;-76
2023/04/09 10:28:19;;;;;;;11.30;8.67;;;;;;;15.77;64.39;94867.41;5112658;28;20564;-76
2023/04/09 10:30:46;;;;;;;13.20;9.10;;;;;;;15.86;63.53;94865.94;5109946;28;20200;-76
2023/04/09 10:33:15;;;;;;;14.20;8.53;;;;;;;15.84;63.77;94867.25;5111978;28;20192;-75
2023/04/09 10:35:42;;;;;;;11.30;8.83;;;;;;;15.85;63.64;94866.19;5109600;28;20223;-76
2023/04/09 10:38:10;;;;;;;9.83;8.57;;;;;;;15.97;63.57;94869.47;5112344;28;20192;-77
2023/04/09 10:40:41;;;;;;;11.47;9.20;;;;;;;16.35;62.67;94858.84;5111940;28;20208;-77
2023/04/09 10:43:10;;;;;;;10.37;8.40;;;;;;;16.73;61.43;94868.41;5112994;28;20231;-79
2023/04/09 10:45:42;;;;;;;9.90;8.33;;;;;;;16.82;60.14;94859.03;5112310;28;20204;-80
2023/04/09 10:48:13;;;;;;;8.90;7.53;;;;;;;16.88;60.40;94858.00;5111795;28;20311;-79
2023/04/09 10:50:42;;;;;;;11.83;9.40;;;;;;;16.85;59.89;94855.09;5111940;28;20283;-80
2023/04/09 10:53:22;;;;;;;11.57;8.30;;;;;;;16.95;59.59;94845.47;5112737;28;20245;-82
2023/04/09 10:55:50;;;;;;;10.83;8.73;;;;;;;17.11;59.38;94848.19;5110444;28;20192;-81
2023/04/09 10:58:17;;;;;;;10.77;8.47;;;;;;;17.11;59.95;94843.72;5112627;28;20227;-80
2023/04/09 11:00:47;;;;;;;11.27;8.60;;;;;;;17.19;58.89;94839.84;5113347;28;20197;-81
2023/04/09 11:03:22;;;;;;;10.43;8.63;;;;;;;17.05;59.35;94833.44;5112818;28;20195;-80
2023/04/09 11:05:52;;;;;;;12.83;8.63;;;;;;;16.85;59.82;94834.09;5108477;28;20183;-83
2023/04/09 11:08:20;;;;;;;10.23;8.40;;;;;;;16.50;59.55;94831.16;5113342;28;20188;-81
2023/04/09 11:10:47;;;;;;;8.97;7.73;;;;;;;16.27;59.36;94827.84;5113059;28;20262;-78
2023/04/09 11:13:16;;;;;;;12.43;8.43;;;;;;;16.09;61.05;94822.94;5112384;28;20275;-79
2023/04/09 11:15:45;;;;;;;10.13;8.30;;;;;;;15.86;61.09;94821.38;5107576;28;20192;-80
2023/04/09 11:18:19;;;;;;;13.03;8.67;;;;;;;15.64;61.98;94823.22;5107986;28;20673;-80
2023/04/09 11:20:46;;;;;;;11.00;8.60;;;;;;;15.49;62.61;94819.66;5110333;28;20185;-81
2023/04/09 11:23:14;;;;;;;10.77;8.03;;;;;;;15.47;62.86;94829.59;5111948;28;20207;-78